sensor_id;sensor_type;location;lat;lon;timestamp;P1;durP1;ratioP1;P2;durP2;ratioP2
13071;SDS011;6602;58.934;11.166;2023-03-23T00:04:57;55.20;;;7.57;;
13071;SDS011;6602;58.934;11.166;2023-03-23T00:10:00;59.23;;;7.07;;
13071;SDS011;6602;58.934;11.166;2023-03-23T00:15:04;44.23;;;5.80;;
13071;SDS011;6602;58.934;11.166;2023-03-23T00:20:08;49.20;;;8.73;;
13071;SDS011;6602;58.934;11.166;2023-03-23T00:25:11;50.23;;;6.83;;
13071;SDS011;6602;58.934;11.166;2023-03-23T00:30:12;56.33;;;8.37;;
13071;SDS011;6602;58.934;11.166;2023-03-23T00:35:14;42.43;;;6.97;;
13071;SDS011;6602;58.934;11.166;2023-03-23T00:40:18;54.97;;;6.70;;
13071;SDS011;6602;58.934;11.166;2023-03-23T00:45:20;43.77;;;6.13;;
13071;SDS011;6602;58.934;11.166;2023-03-23T00:50:22;49.50;;;6.83;;
13071;SDS011;6602;58.934;11.166;2023-03-23T00:55:27;50.00;;;6.10;;
13071;SDS011;6602;58.934;11.166;2023-03-23T01:00:30;49.33;;;7.07;;
13071;SDS011;6602;58.934;11.166;2023-03-23T01:05:39;55.37;;;6.53;;
13071;SDS011;6602;58.934;11.166;2023-03-23T01:10:40;40.00;;;6.30;;
13071;SDS011;6602;58.934;11.166;2023-03-23T01:15:42;60.77;;;8.57;;
13071;SDS011;6602;58.934;11.166;2023-03-23T01:20:43;55.97;;;9.43;;
13071;SDS011;6602;58.934;11.166;2023-03-23T01:25:46;53.37;;;7.70;;
13071;SDS011;6602;58.934;11.166;2023-03-23T01:30:47;39.60;;;6.70;;
13071;SDS011;6602;58.934;11.166;2023-03-23T01:35:51;42.37;;;6.63;;
13071;SDS011;6602;58.934;11.166;2023-03-23T01:40:54;43.53;;;7.30;;
13071;SDS011;6602;58.934;11.166;2023-03-23T01:45:59;56.63;;;9.30;;
13071;SDS011;6602;58.934;11.166;2023-03-23T01:51:07;59.10;;;8.00;;
13071;SDS011;6602;58.934;11.166;2023-03-23T01:56:16;52.07;;;7.50;;
13071;SDS011;6602;58.934;11.166;2023-03-23T02:01:20;45.53;;;6.83;;
13071;SDS011;6602;58.934;11.166;2023-03-23T02:06:24;57.37;;;8.00;;
13071;SDS011;6602;58.934;11.166;2023-03-23T02:11:26;39.90;;;6.43;;
13071;SDS011;6602;58.934;11.166;2023-03-23T02:21:51;44.00;;;6.60;;
13071;SDS011;6602;58.934;11.166;2023-03-23T02:27:26;39.47;;;6.27;;
13071;SDS011;6602;58.934;11.166;2023-03-23T02:38:21;37.43;;;7.17;;
13071;SDS011;6602;58.934;11.166;2023-03-23T02:43:44;36.87;;;7.57;;
13071;SDS011;6602;58.934;11.166;2023-03-23T02:53:51;41.63;;;6.87;;
13071;SDS011;6602;58.934;11.166;2023-03-23T02:58:55;47.30;;;8.10;;
13071;SDS011;6602;58.934;11.166;2023-03-23T03:03:56;34.47;;;7.03;;
13071;SDS011;6602;58.934;11.166;2023-03-23T03:09:05;39.90;;;8.87;;
13071;SDS011;6602;58.934;11.166;2023-03-23T03:14:48;38.87;;;7.80;;
13071;SDS011;6602;58.934;11.166;2023-03-23T03:20:02;41.50;;;8.10;;
13071;SDS011;6602;58.934;11.166;2023-03-23T03:25:09;40.03;;;9.03;;
13071;SDS011;6602;58.934;11.166;2023-03-23T03:30:16;36.73;;;8.50;;
13071;SDS011;6602;58.934;11.166;2023-03-23T03:35:25;33.73;;;8.07;;
13071;SDS011;6602;58.934;11.166;2023-03-23T03:40:30;31.23;;;8.23;;
13071;SDS011;6602;58.934;11.166;2023-03-23T03:45:34;33.17;;;8.20;;
13071;SDS011;6602;58.934;11.166;2023-03-23T03:50:42;41.77;;;9.30;;
13071;SDS011;6602;58.934;11.166;2023-03-23T03:55:46;36.67;;;7.87;;
13071;SDS011;6602;58.934;11.166;2023-03-23T04:00:51;38.90;;;8.70;;
13071;SDS011;6602;58.934;11.166;2023-03-23T04:05:55;35.63;;;6.47;;
13071;SDS011;6602;58.934;11.166;2023-03-23T04:10:56;40.60;;;8.17;;
13071;SDS011;6602;58.934;11.166;2023-03-23T04:16:00;35.50;;;7.17;;
13071;SDS011;6602;58.934;11.166;2023-03-23T04:21:05;33.90;;;6.37;;
13071;SDS011;6602;58.934;11.166;2023-03-23T04:26:10;34.23;;;7.60;;
13071;SDS011;6602;58.934;11.166;2023-03-23T04:31:16;40.53;;;7.57;;
13071;SDS011;6602;58.934;11.166;2023-03-23T04:36:20;44.80;;;8.83;;
13071;SDS011;6602;58.934;11.166;2023-03-23T04:41:26;48.33;;;8.17;;
13071;SDS011;6602;58.934;11.166;2023-03-23T04:46:26;29.00;;;6.60;;
13071;SDS011;6602;58.934;11.166;2023-03-23T04:51:31;47.23;;;7.77;;
13071;SDS011;6602;58.934;11.166;2023-03-23T04:56:35;46.23;;;7.70;;
13071;SDS011;6602;58.934;11.166;2023-03-23T05:01:40;28.40;;;6.93;;
13071;SDS011;6602;58.934;11.166;2023-03-23T05:06:48;36.13;;;7.10;;
13071;SDS011;6602;58.934;11.166;2023-03-23T05:11:49;36.43;;;7.17;;
13071;SDS011;6602;58.934;11.166;2023-03-23T05:16:53;41.00;;;6.57;;
13071;SDS011;6602;58.934;11.166;2023-03-23T05:21:56;37.40;;;7.77;;
13071;SDS011;6602;58.934;11.166;2023-03-23T05:27:09;41.50;;;7.87;;
13071;SDS011;6602;58.934;11.166;2023-03-23T05:32:11;36.07;;;7.07;;
13071;SDS011;6602;58.934;11.166;2023-03-23T05:37:16;36.47;;;7.97;;
13071;SDS011;6602;58.934;11.166;2023-03-23T05:42:23;30.90;;;6.53;;
13071;SDS011;6602;58.934;11.166;2023-03-23T05:47:25;39.00;;;8.53;;
13071;SDS011;6602;58.934;11.166;2023-03-23T05:52:29;31.40;;;6.23;;
13071;SDS011;6602;58.934;11.166;2023-03-23T05:57:33;35.87;;;7.40;;
13071;SDS011;6602;58.934;11.166;2023-03-23T06:02:39;41.47;;;8.63;;
13071;SDS011;6602;58.934;11.166;2023-03-23T06:07:43;40.87;;;8.33;;
13071;SDS011;6602;58.934;11.166;2023-03-23T06:12:49;52.90;;;9.40;;
13071;SDS011;6602;58.934;11.166;2023-03-23T06:17:54;40.60;;;7.30;;
13071;SDS011;6602;58.934;11.166;2023-03-23T06:22:56;37.70;;;7.63;;
13071;SDS011;6602;58.934;11.166;2023-03-23T06:28:06;46.23;;;8.70;;
13071;SDS011;6602;58.934;11.166;2023-03-23T06:33:09;40.97;;;8.20;;
13071;SDS011;6602;58.934;11.166;2023-03-23T06:38:13;31.90;;;8.13;;
13071;SDS011;6602;58.934;11.166;2023-03-23T06:43:14;39.50;;;8.53;;
13071;SDS011;6602;58.934;11.166;2023-03-23T06:48:15;35.33;;;8.87;;
13071;SDS011;6602;58.934;11.166;2023-03-23T06:53:19;35.60;;;7.33;;
13071;SDS011;6602;58.934;11.166;2023-03-23T06:58:20;45.20;;;9.47;;
13071;SDS011;6602;58.934;11.166;2023-03-23T07:03:25;36.93;;;9.10;;
13071;SDS011;6602;58.934;11.166;2023-03-23T07:08:27;42.27;;;8.07;;
13071;SDS011;6602;58.934;11.166;2023-03-23T07:13:31;40.97;;;8.83;;
13071;SDS011;6602;58.934;11.166;2023-03-23T07:18:32;40.40;;;10.50;;
13071;SDS011;6602;58.934;11.166;2023-03-23T07:23:33;46.33;;;9.50;;
13071;SDS011;6602;58.934;11.166;2023-03-23T07:28:40;35.20;;;9.63;;
13071;SDS011;6602;58.934;11.166;2023-03-23T07:33:41;40.30;;;9.10;;
13071;SDS011;6602;58.934;11.166;2023-03-23T07:38:47;37.03;;;9.13;;
13071;SDS011;6602;58.934;11.166;2023-03-23T07:43:48;28.97;;;9.07;;
13071;SDS011;6602;58.934;11.166;2023-03-23T07:48:53;47.03;;;9.33;;
13071;SDS011;6602;58.934;11.166;2023-03-23T07:53:54;25.80;;;7.97;;
13071;SDS011;6602;58.934;11.166;2023-03-23T07:58:55;28.37;;;8.07;;
13071;SDS011;6602;58.934;11.166;2023-03-23T08:03:59;34.30;;;7.63;;
13071;SDS011;6602;58.934;11.166;2023-03-23T08:09:02;27.27;;;7.40;;
13071;SDS011;6602;58.934;11.166;2023-03-23T08:14:09;24.27;;;7.30;;
13071;SDS011;6602;58.934;11.166;2023-03-23T08:19:12;22.90;;;6.50;;
13071;SDS011;6602;58.934;11.166;2023-03-23T08:24:17;27.23;;;6.20;;
13071;SDS011;6602;58.934;11.166;2023-03-23T08:29:18;14.90;;;6.40;;
13071;SDS011;6602;58.934;11.166;2023-03-23T08:34:20;10.73;;;6.33;;
13071;SDS011;6602;58.934;11.166;2023-03-23T08:39:24;11.20;;;5.43;;
13071;SDS011;6602;58.934;11.166;2023-03-23T08:44:27;11.93;;;5.17;;
13071;SDS011;6602;58.934;11.166;2023-03-23T08:49:31;16.77;;;6.00;;
13071;SDS011;6602;58.934;11.166;2023-03-23T08:54:37;17.23;;;5.50;;
13071;SDS011;6602;58.934;11.166;2023-03-23T08:59:39;11.30;;;5.00;;
13071;SDS011;6602;58.934;11.166;2023-03-23T09:04:40;12.43;;;4.87;;
13071;SDS011;6602;58.934;11.166;2023-03-23T09:09:44;9.57;;;4.77;;
13071;SDS011;6602;58.934;11.166;2023-03-23T09:14:49;11.27;;;4.40;;
13071;SDS011;6602;58.934;11.166;2023-03-23T09:19:50;9.40;;;4.10;;
13071;SDS011;6602;58.934;11.166;2023-03-23T09:24:57;5.87;;;2.90;;
13071;SDS011;6602;58.934;11.166;2023-03-23T09:29:57;4.87;;;2.33;;
13071;SDS011;6602;58.934;11.166;2023-03-23T09:35:02;5.10;;;2.30;;
13071;SDS011;6602;58.934;11.166;2023-03-23T09:40:09;5.53;;;2.50;;
13071;SDS011;6602;58.934;11.166;2023-03-23T09:51:15;5.40;;;2.13;;
13071;SDS011;6602;58.934;11.166;2023-03-23T09:56:36;3.87;;;1.70;;
13071;SDS011;6602;58.934;11.166;2023-03-23T10:01:49;2.67;;;1.70;;
13071;SDS011;6602;58.934;11.166;2023-03-23T10:06:58;3.47;;;1.70;;
13071;SDS011;6602;58.934;11.166;2023-03-23T10:17:46;2.70;;;1.83;;
13071;SDS011;6602;58.934;11.166;2023-03-23T10:33:56;5.40;;;2.50;;
13071;SDS011;6602;58.934;11.166;2023-03-23T10:44:16;5.27;;;2.60;;
13071;SDS011;6602;58.934;11.166;2023-03-23T10:49:28;4.27;;;2.13;;
13071;SDS011;6602;58.934;11.166;2023-03-23T10:54:37;6.47;;;4.37;;
13071;SDS011;6602;58.934;11.166;2023-03-23T10:59:51;5.23;;;2.80;;
13071;SDS011;6602;58.934;11.166;2023-03-23T11:05:01;7.90;;;2.50;;
13071;SDS011;6602;58.934;11.166;2023-03-23T11:10:16;4.10;;;2.20;;
13071;SDS011;6602;58.934;11.166;2023-03-23T11:15:32;6.23;;;2.93;;
13071;SDS011;6602;58.934;11.166;2023-03-23T11:20:43;4.90;;;2.73;;
13071;SDS011;6602;58.934;11.166;2023-03-23T11:25:53;5.83;;;3.37;;
13071;SDS011;6602;58.934;11.166;2023-03-23T11:31:07;6.20;;;3.60;;
13071;SDS011;6602;58.934;11.166;2023-03-23T11:36:11;13.47;;;3.30;;
13071;SDS011;6602;58.934;11.166;2023-03-23T11:41:17;5.80;;;3.10;;
13071;SDS011;6602;58.934;11.166;2023-03-23T11:46:29;6.83;;;3.23;;
13071;SDS011;6602;58.934;11.166;2023-03-23T11:57:26;6.03;;;3.00;;
13071;SDS011;6602;58.934;11.166;2023-03-23T12:07:52;6.17;;;3.50;;
13071;SDS011;6602;58.934;11.166;2023-03-23T12:13:30;3.67;;;2.43;;
13071;SDS011;6602;58.934;11.166;2023-03-23T12:45:47;4.07;;;2.90;;
13071;SDS011;6602;58.934;11.166;2023-03-23T12:56:36;4.40;;;2.17;;
13071;SDS011;6602;58.934;11.166;2023-03-23T13:01:58;4.03;;;2.87;;
13071;SDS011;6602;58.934;11.166;2023-03-23T13:07:06;4.43;;;3.27;;
13071;SDS011;6602;58.934;11.166;2023-03-23T13:12:13;7.90;;;5.00;;
13071;SDS011;6602;58.934;11.166;2023-03-23T13:17:19;16.90;;;6.40;;
13071;SDS011;6602;58.934;11.166;2023-03-23T13:28:00;18.60;;;9.50;;
13071;SDS011;6602;58.934;11.166;2023-03-23T13:33:03;20.13;;;7.87;;
13071;SDS011;6602;58.934;11.166;2023-03-23T13:38:12;18.57;;;8.53;;
13071;SDS011;6602;58.934;11.166;2023-03-23T13:43:41;19.93;;;7.87;;
13071;SDS011;6602;58.934;11.166;2023-03-23T13:48:47;18.57;;;7.87;;
13071;SDS011;6602;58.934;11.166;2023-03-23T13:53:52;16.27;;;7.27;;
13071;SDS011;6602;58.934;11.166;2023-03-23T13:59:04;14.80;;;6.63;;
13071;SDS011;6602;58.934;11.166;2023-03-23T14:04:09;11.27;;;5.70;;
13071;SDS011;6602;58.934;11.166;2023-03-23T14:09:17;11.90;;;5.27;;
13071;SDS011;6602;58.934;11.166;2023-03-23T14:19:32;10.87;;;2.50;;
13071;SDS011;6602;58.934;11.166;2023-03-23T14:24:39;12.40;;;3.17;;
13071;SDS011;6602;58.934;11.166;2023-03-23T14:29:40;16.90;;;2.80;;
13071;SDS011;6602;58.934;11.166;2023-03-23T14:34:42;11.20;;;2.83;;
13071;SDS011;6602;58.934;11.166;2023-03-23T14:39:46;26.73;;;4.67;;
13071;SDS011;6602;58.934;11.166;2023-03-23T14:44:48;19.47;;;4.63;;
13071;SDS011;6602;58.934;11.166;2023-03-23T14:50:01;23.67;;;5.70;;
13071;SDS011;6602;58.934;11.166;2023-03-23T14:55:10;32.83;;;5.13;;
13071;SDS011;6602;58.934;11.166;2023-03-23T15:00:17;28.13;;;4.40;;
13071;SDS011;6602;58.934;11.166;2023-03-23T15:05:57;37.47;;;6.43;;
13071;SDS011;6602;58.934;11.166;2023-03-23T15:10:55;31.03;;;4.80;;
13071;SDS011;6602;58.934;11.166;2023-03-23T15:16:07;34.40;;;6.40;;
13071;SDS011;6602;58.934;11.166;2023-03-23T15:21:22;42.43;;;5.17;;
13071;SDS011;6602;58.934;11.166;2023-03-23T15:26:43;30.03;;;5.20;;
13071;SDS011;6602;58.934;11.166;2023-03-23T15:31:48;33.97;;;5.23;;
13071;SDS011;6602;58.934;11.166;2023-03-23T15:36:54;43.13;;;6.13;;
13071;SDS011;6602;58.934;11.166;2023-03-23T15:41:57;42.73;;;6.33;;
13071;SDS011;6602;58.934;11.166;2023-03-23T15:47:18;39.00;;;5.43;;
13071;SDS011;6602;58.934;11.166;2023-03-23T15:52:33;43.60;;;7.13;;
13071;SDS011;6602;58.934;11.166;2023-03-23T15:57:37;46.57;;;6.37;;
13071;SDS011;6602;58.934;11.166;2023-03-23T16:02:46;39.60;;;5.67;;
13071;SDS011;6602;58.934;11.166;2023-03-23T16:07:56;45.63;;;7.77;;
13071;SDS011;6602;58.934;11.166;2023-03-23T16:13:00;36.57;;;6.83;;
13071;SDS011;6602;58.934;11.166;2023-03-23T16:18:05;44.83;;;6.20;;
13071;SDS011;6602;58.934;11.166;2023-03-23T16:23:08;51.90;;;6.80;;
13071;SDS011;6602;58.934;11.166;2023-03-23T16:28:12;46.57;;;6.40;;
13071;SDS011;6602;58.934;11.166;2023-03-23T16:33:17;50.60;;;7.63;;
13071;SDS011;6602;58.934;11.166;2023-03-23T16:38:22;52.13;;;6.47;;
13071;SDS011;6602;58.934;11.166;2023-03-23T16:43:29;44.70;;;7.57;;
13071;SDS011;6602;58.934;11.166;2023-03-23T16:48:33;41.93;;;5.13;;
13071;SDS011;6602;58.934;11.166;2023-03-23T16:53:36;37.03;;;6.17;;
13071;SDS011;6602;58.934;11.166;2023-03-23T16:58:40;40.90;;;6.57;;
13071;SDS011;6602;58.934;11.166;2023-03-23T17:03:47;37.77;;;6.20;;
13071;SDS011;6602;58.934;11.166;2023-03-23T17:08:51;40.27;;;5.73;;
13071;SDS011;6602;58.934;11.166;2023-03-23T17:13:55;52.47;;;6.77;;
13071;SDS011;6602;58.934;11.166;2023-03-23T17:18:58;29.30;;;5.33;;
13071;SDS011;6602;58.934;11.166;2023-03-23T17:24:02;48.23;;;6.17;;
13071;SDS011;6602;58.934;11.166;2023-03-23T17:29:03;43.63;;;7.23;;
13071;SDS011;6602;58.934;11.166;2023-03-23T17:34:10;45.70;;;7.07;;
13071;SDS011;6602;58.934;11.166;2023-03-23T17:39:14;46.70;;;6.07;;
13071;SDS011;6602;58.934;11.166;2023-03-23T17:44:20;59.03;;;7.80;;
13071;SDS011;6602;58.934;11.166;2023-03-23T17:49:24;48.50;;;6.37;;
13071;SDS011;6602;58.934;11.166;2023-03-23T17:54:28;48.60;;;6.43;;
13071;SDS011;6602;58.934;11.166;2023-03-23T17:59:32;39.67;;;6.93;;
13071;SDS011;6602;58.934;11.166;2023-03-23T18:04:34;46.27;;;7.87;;
13071;SDS011;6602;58.934;11.166;2023-03-23T18:09:38;45.57;;;5.83;;
13071;SDS011;6602;58.934;11.166;2023-03-23T18:14:39;52.67;;;7.67;;
13071;SDS011;6602;58.934;11.166;2023-03-23T18:19:43;42.97;;;6.53;;
13071;SDS011;6602;58.934;11.166;2023-03-23T18:24:48;66.77;;;7.13;;
13071;SDS011;6602;58.934;11.166;2023-03-23T18:29:52;50.63;;;7.90;;
13071;SDS011;6602;58.934;11.166;2023-03-23T18:34:55;56.90;;;7.63;;
13071;SDS011;6602;58.934;11.166;2023-03-23T18:39:56;31.30;;;5.63;;
13071;SDS011;6602;58.934;11.166;2023-03-23T18:44:59;46.63;;;6.27;;
13071;SDS011;6602;58.934;11.166;2023-03-23T18:50:05;37.57;;;5.57;;
13071;SDS011;6602;58.934;11.166;2023-03-23T18:55:10;38.33;;;6.10;;
13071;SDS011;6602;58.934;11.166;2023-03-23T19:00:19;34.13;;;6.37;;
13071;SDS011;6602;58.934;11.166;2023-03-23T19:05:20;42.87;;;6.43;;
13071;SDS011;6602;58.934;11.166;2023-03-23T19:10:25;50.87;;;7.57;;
13071;SDS011;6602;58.934;11.166;2023-03-23T19:15:28;44.97;;;6.63;;
13071;SDS011;6602;58.934;11.166;2023-03-23T19:20:32;42.67;;;6.13;;
13071;SDS011;6602;58.934;11.166;2023-03-23T19:25:34;36.87;;;6.27;;
13071;SDS011;6602;58.934;11.166;2023-03-23T19:30:35;38.60;;;5.87;;
13071;SDS011;6602;58.934;11.166;2023-03-23T19:35:39;50.10;;;6.07;;
13071;SDS011;6602;58.934;11.166;2023-03-23T19:40:40;37.37;;;5.73;;
13071;SDS011;6602;58.934;11.166;2023-03-23T19:45:50;43.87;;;6.20;;
13071;SDS011;6602;58.934;11.166;2023-03-23T19:50:51;52.13;;;8.07;;
13071;SDS011;6602;58.934;11.166;2023-03-23T19:55:57;46.57;;;7.70;;
13071;SDS011;6602;58.934;11.166;2023-03-23T20:00:59;37.70;;;5.80;;
13071;SDS011;6602;58.934;11.166;2023-03-23T20:06:06;42.50;;;5.57;;
13071;SDS011;6602;58.934;11.166;2023-03-23T20:11:20;39.60;;;6.50;;
13071;SDS011;6602;58.934;11.166;2023-03-23T20:16:21;46.63;;;6.90;;
13071;SDS011;6602;58.934;11.166;2023-03-23T20:21:25;42.93;;;6.63;;
13071;SDS011;6602;58.934;11.166;2023-03-23T20:26:31;44.63;;;6.40;;
13071;SDS011;6602;58.934;11.166;2023-03-23T20:31:38;59.83;;;7.60;;
13071;SDS011;6602;58.934;11.166;2023-03-23T20:36:43;37.57;;;6.87;;
13071;SDS011;6602;58.934;11.166;2023-03-23T20:41:56;41.17;;;6.03;;
13071;SDS011;6602;58.934;11.166;2023-03-23T20:46:59;55.50;;;5.93;;
13071;SDS011;6602;58.934;11.166;2023-03-23T20:52:03;48.67;;;8.33;;
13071;SDS011;6602;58.934;11.166;2023-03-23T20:57:08;50.57;;;6.67;;
13071;SDS011;6602;58.934;11.166;2023-03-23T21:02:13;59.83;;;7.43;;
13071;SDS011;6602;58.934;11.166;2023-03-23T21:07:21;57.97;;;7.57;;
13071;SDS011;6602;58.934;11.166;2023-03-23T21:12:26;52.47;;;7.50;;
13071;SDS011;6602;58.934;11.166;2023-03-23T21:17:28;55.33;;;7.47;;
13071;SDS011;6602;58.934;11.166;2023-03-23T21:22:29;45.20;;;7.47;;
13071;SDS011;6602;58.934;11.166;2023-03-23T21:27:29;55.20;;;7.50;;
13071;SDS011;6602;58.934;11.166;2023-03-23T21:32:33;59.40;;;8.80;;
13071;SDS011;6602;58.934;11.166;2023-03-23T21:37:34;47.33;;;6.43;;
13071;SDS011;6602;58.934;11.166;2023-03-23T21:42:44;56.57;;;8.83;;
13071;SDS011;6602;58.934;11.166;2023-03-23T21:47:49;57.63;;;7.27;;
13071;SDS011;6602;58.934;11.166;2023-03-23T21:52:55;46.73;;;6.60;;
13071;SDS011;6602;58.934;11.166;2023-03-23T21:57:56;63.40;;;7.67;;
13071;SDS011;6602;58.934;11.166;2023-03-23T22:02:57;61.40;;;8.47;;
13071;SDS011;6602;58.934;11.166;2023-03-23T22:08:00;65.37;;;8.60;;
13071;SDS011;6602;58.934;11.166;2023-03-23T22:13:01;66.07;;;8.60;;
13071;SDS011;6602;58.934;11.166;2023-03-23T22:18:05;66.03;;;7.43;;
13071;SDS011;6602;58.934;11.166;2023-03-23T22:23:06;53.90;;;7.00;;
13071;SDS011;6602;58.934;11.166;2023-03-23T22:28:08;51.73;;;9.03;;
13071;SDS011;6602;58.934;11.166;2023-03-23T22:33:11;63.70;;;8.90;;
13071;SDS011;6602;58.934;11.166;2023-03-23T22:38:12;64.60;;;8.80;;
13071;SDS011;6602;58.934;11.166;2023-03-23T22:43:15;43.10;;;9.17;;
13071;SDS011;6602;58.934;11.166;2023-03-23T22:48:17;54.57;;;8.17;;
13071;SDS011;6602;58.934;11.166;2023-03-23T22:53:23;55.27;;;8.43;;
13071;SDS011;6602;58.934;11.166;2023-03-23T22:58:26;56.03;;;9.70;;
13071;SDS011;6602;58.934;11.166;2023-03-23T23:03:28;54.40;;;7.40;;
13071;SDS011;6602;58.934;11.166;2023-03-23T23:08:30;37.23;;;8.20;;
13071;SDS011;6602;58.934;11.166;2023-03-23T23:13:34;57.77;;;8.03;;
13071;SDS011;6602;58.934;11.166;2023-03-23T23:18:39;59.20;;;7.57;;
13071;SDS011;6602;58.934;11.166;2023-03-23T23:23:40;62.07;;;8.47;;
13071;SDS011;6602;58.934;11.166;2023-03-23T23:28:44;50.10;;;7.03;;
13071;SDS011;6602;58.934;11.166;2023-03-23T23:33:45;60.70;;;8.20;;
13071;SDS011;6602;58.934;11.166;2023-03-23T23:38:47;63.90;;;7.90;;
13071;SDS011;6602;58.934;11.166;2023-03-23T23:43:51;72.27;;;8.93;;
13071;SDS011;6602;58.934;11.166;2023-03-23T23:48:52;57.60;;;6.57;;
13071;SDS011;6602;58.934;11.166;2023-03-23T23:53:55;65.70;;;8.70;;
13071;SDS011;6602;58.934;11.166;2023-03-23T23:59:06;53.43;;;9.10;;
